createdAt,value
2023-02-27T00:01:52.611Z,4.10
2023-02-27T00:04:19.129Z,4.33
2023-02-27T00:06:46.256Z,4.30
2023-02-27T00:09:12.704Z,4.10
2023-02-27T00:11:40.353Z,3.73
2023-02-27T00:14:06.945Z,3.60
2023-02-27T00:16:34.285Z,3.60
2023-02-27T00:19:04.510Z,3.50
2023-02-27T00:21:31.814Z,4.00
2023-02-27T00:23:58.675Z,4.07
2023-02-27T00:26:25.623Z,4.30
2023-02-27T00:28:52.697Z,4.33
2023-02-27T00:31:19.317Z,3.80
2023-02-27T00:33:46.360Z,3.93
2023-02-27T00:36:13.554Z,4.07
2023-02-27T00:38:40.125Z,3.50
2023-02-27T00:41:07.094Z,3.67
2023-02-27T00:43:34.700Z,4.03
2023-02-27T00:46:01.575Z,4.13
2023-02-27T00:48:28.059Z,4.40
2023-02-27T00:50:54.568Z,4.07
2023-02-27T00:53:21.097Z,4.33
2023-02-27T00:55:47.597Z,3.93
2023-02-27T00:58:14.142Z,4.20
2023-02-27T01:00:40.627Z,4.50
2023-02-27T01:03:07.229Z,4.40
2023-02-27T01:05:33.821Z,4.50
2023-02-27T01:08:00.472Z,4.30
2023-02-27T01:10:26.949Z,4.67
2023-02-27T01:12:53.411Z,4.27
2023-02-27T01:15:20.374Z,5.10
2023-02-27T01:17:48.034Z,4.20
2023-02-27T01:20:15.536Z,4.73
2023-02-27T01:22:42.001Z,4.50
2023-02-27T01:25:09.215Z,4.73
2023-02-27T01:27:36.463Z,5.00
2023-02-27T01:30:03.966Z,5.20
2023-02-27T01:32:30.836Z,4.80
2023-02-27T01:34:57.737Z,4.67
2023-02-27T01:37:24.174Z,5.00
2023-02-27T01:39:50.712Z,4.73
2023-02-27T01:42:21.200Z,5.23
2023-02-27T01:45:06.451Z,5.37
2023-02-27T01:47:33.088Z,4.70
2023-02-27T01:50:00.592Z,4.73
2023-02-27T01:52:27.743Z,5.33
2023-02-27T01:54:55.538Z,5.37
2023-02-27T01:57:22.020Z,5.07
2023-02-27T01:59:48.534Z,5.20
2023-02-27T02:02:20.813Z,5.70
2023-02-27T02:04:48.271Z,5.00
2023-02-27T02:07:17.097Z,5.37
2023-02-27T02:09:47.030Z,5.73
2023-02-27T02:12:16.232Z,5.40
2023-02-27T02:14:43.895Z,5.40
2023-02-27T02:17:15.734Z,5.53
2023-02-27T02:20:01.321Z,5.20
2023-02-27T02:22:33.847Z,5.80
2023-02-27T02:25:24.041Z,5.43
2023-02-27T02:28:16.913Z,5.40
2023-02-27T02:31:10.250Z,5.23
2023-02-27T02:33:38.078Z,5.67
2023-02-27T02:36:19.479Z,5.70
2023-02-27T02:38:56.324Z,5.37
2023-02-27T02:41:25.864Z,5.40
2023-02-27T02:44:30.344Z,5.97
2023-02-27T02:47:05.410Z,5.10
2023-02-27T02:49:53.767Z,5.03
2023-02-27T02:52:30.191Z,5.20
2023-02-27T02:55:22.538Z,4.93
2023-02-27T02:57:54.222Z,4.97
2023-02-27T03:00:36.719Z,5.50
2023-02-27T03:03:10.522Z,5.20
2023-02-27T03:05:46.727Z,5.30
2023-02-27T03:08:20.570Z,5.40
2023-02-27T03:11:04.256Z,5.40
2023-02-27T03:13:42.116Z,5.50
2023-02-27T03:16:23.985Z,6.10
2023-02-27T03:18:55.141Z,6.50
2023-02-27T03:21:27.348Z,6.17
2023-02-27T03:23:56.487Z,6.20
2023-02-27T03:26:25.124Z,6.07
2023-02-27T03:28:59.091Z,6.50
2023-02-27T03:31:35.448Z,5.90
2023-02-27T03:34:09.137Z,5.93
2023-02-27T03:36:50.160Z,5.47
2023-02-27T03:39:41.005Z,5.30
2023-02-27T03:42:14.674Z,5.63
2023-02-27T03:45:08.549Z,6.10
2023-02-27T03:47:35.308Z,6.10
2023-02-27T03:50:02.086Z,6.13
2023-02-27T03:52:29.787Z,5.90
2023-02-27T03:55:01.645Z,5.33
2023-02-27T03:57:28.486Z,5.83
2023-02-27T03:59:55.110Z,5.50
2023-02-27T04:02:22.598Z,5.87
2023-02-27T04:04:49.049Z,6.00
2023-02-27T04:07:37.840Z,5.90
2023-02-27T04:10:21.815Z,5.70
2023-02-27T04:13:12.806Z,5.93
2023-02-27T04:16:00.736Z,5.73
2023-02-27T04:18:34.219Z,5.40
2023-02-27T04:21:11.450Z,5.97
2023-02-27T04:23:59.174Z,5.83
2023-02-27T04:26:32.557Z,5.87
2023-02-27T04:29:05.247Z,6.77
2023-02-27T04:32:01.054Z,6.37
2023-02-27T04:34:31.066Z,5.80
2023-02-27T04:37:09.134Z,5.97
2023-02-27T04:40:05.390Z,5.93
2023-02-27T04:42:38.648Z,6.20
2023-02-27T04:45:09.142Z,5.77
2023-02-27T04:48:01.053Z,5.80
2023-02-27T04:50:34.099Z,6.00
2023-02-27T04:53:09.386Z,5.77
2023-02-27T04:55:51.771Z,5.50
2023-02-27T04:58:40.753Z,5.80
2023-02-27T05:01:41.101Z,5.80
2023-02-27T05:04:11.260Z,6.13
2023-02-27T05:06:39.825Z,6.07
2023-02-27T05:09:15.346Z,5.57
2023-02-27T05:11:54.998Z,5.20
2023-02-27T05:14:34.976Z,5.43
2023-02-27T05:17:01.777Z,5.50
2023-02-27T05:19:30.773Z,5.57
2023-02-27T05:22:16.321Z,5.60
2023-02-27T05:24:54.750Z,5.30
2023-02-27T05:27:35.458Z,5.80
2023-02-27T05:30:12.495Z,5.37
2023-02-27T05:32:53.644Z,5.53
2023-02-27T05:35:42.559Z,5.53
2023-02-27T05:38:19.754Z,9.30
2023-02-27T05:41:01.114Z,9.33
2023-02-27T05:43:32.162Z,6.53
2023-02-27T05:46:06.766Z,7.17
2023-02-27T05:48:41.378Z,6.17
2023-02-27T05:51:09.320Z,7.47
2023-02-27T05:53:41.873Z,8.93
2023-02-27T05:56:08.720Z,7.20
2023-02-27T05:58:50.454Z,8.10
2023-02-27T06:01:16.914Z,8.20
2023-02-27T06:03:43.754Z,6.90
2023-02-27T06:06:16.562Z,6.80
2023-02-27T06:08:43.791Z,6.23
2023-02-27T06:11:10.268Z,6.57
2023-02-27T06:13:36.725Z,7.00
2023-02-27T06:16:03.278Z,7.17
2023-02-27T06:18:45.742Z,7.30
2023-02-27T06:21:15.036Z,7.60
2023-02-27T06:23:41.433Z,6.90
2023-02-27T06:26:08.119Z,6.93
2023-02-27T06:28:34.574Z,6.53
2023-02-27T06:31:01.351Z,7.23
2023-02-27T06:33:27.805Z,6.87
2023-02-27T06:35:54.301Z,7.10
2023-02-27T06:38:20.865Z,7.80
2023-02-27T06:40:47.499Z,7.27
2023-02-27T06:43:14.985Z,7.60
2023-02-27T06:45:41.549Z,7.13
2023-02-27T06:48:08.575Z,7.27
2023-02-27T06:50:35.243Z,8.07
2023-02-27T06:53:01.703Z,9.17
2023-02-27T06:55:28.144Z,8.77
2023-02-27T06:57:54.552Z,8.17
2023-02-27T07:00:21.799Z,9.30
2023-02-27T07:02:48.250Z,8.93
2023-02-27T07:05:14.684Z,9.20
2023-02-27T07:07:41.245Z,9.23
2023-02-27T07:10:13.080Z,8.60
2023-02-27T07:12:40.160Z,8.93
2023-02-27T07:15:07.833Z,8.10
2023-02-27T07:17:34.594Z,9.07
2023-02-27T07:20:01.074Z,8.20
2023-02-27T07:22:27.975Z,7.30
2023-02-27T07:24:54.475Z,8.13
2023-02-27T07:27:21.095Z,7.73
2023-02-27T07:29:47.615Z,6.87
2023-02-27T07:32:14.190Z,6.40
2023-02-27T07:34:40.594Z,7.10
2023-02-27T07:37:06.995Z,7.97
2023-02-27T07:39:34.291Z,7.90
2023-02-27T07:42:00.728Z,7.30
2023-02-27T07:44:27.200Z,7.80
2023-02-27T07:46:54.078Z,10.80
2023-02-27T07:49:20.818Z,7.77
2023-02-27T07:51:47.367Z,7.00
2023-02-27T07:54:13.872Z,6.73
2023-02-27T07:56:40.326Z,6.57
2023-02-27T07:59:06.792Z,6.93
2023-02-27T08:01:33.297Z,6.30
2023-02-27T08:03:59.784Z,6.13
2023-02-27T08:06:26.557Z,6.33
2023-02-27T08:08:54.221Z,6.50
2023-02-27T08:11:20.772Z,5.80
2023-02-27T08:14:03.207Z,6.73
2023-02-27T08:16:31.411Z,6.67
2023-02-27T08:18:58.388Z,6.60
2023-02-27T08:21:25.056Z,7.20
2023-02-27T08:23:51.654Z,6.63
2023-02-27T08:26:18.686Z,6.67
2023-02-27T08:28:45.100Z,6.30
2023-02-27T08:31:11.545Z,6.53
2023-02-27T08:33:38.150Z,6.03
2023-02-27T08:36:05.938Z,4.97
2023-02-27T08:38:32.467Z,5.00
2023-02-27T08:40:58.937Z,5.33
2023-02-27T08:43:25.519Z,5.33
2023-02-27T08:45:52.065Z,5.20
2023-02-27T08:48:18.698Z,5.13
2023-02-27T08:50:46.521Z,5.30
2023-02-27T08:53:13.476Z,5.13
2023-02-27T08:55:40.040Z,4.70
2023-02-27T08:58:06.614Z,5.10
2023-02-27T09:00:33.010Z,4.80
2023-02-27T09:03:01.183Z,4.40
2023-02-27T09:05:28.345Z,4.63
2023-02-27T09:07:54.908Z,5.70
2023-02-27T09:10:21.612Z,5.73
2023-02-27T09:12:49.286Z,6.10
2023-02-27T09:15:16.100Z,4.67
2023-02-27T09:17:42.640Z,5.03
2023-02-27T09:20:10.715Z,4.30
2023-02-27T09:22:37.599Z,4.10
2023-02-27T09:25:04.746Z,4.87
2023-02-27T09:27:31.233Z,3.43
2023-02-27T09:29:57.925Z,3.80
2023-02-27T09:32:25.662Z,4.27
2023-02-27T09:34:52.414Z,4.23
2023-02-27T09:37:21.867Z,3.80
2023-02-27T09:39:48.419Z,3.63
2023-02-27T09:42:19.446Z,3.40
2023-02-27T09:44:48.790Z,3.70
2023-02-27T09:47:25.370Z,3.63
2023-02-27T09:49:58.339Z,3.50
2023-02-27T09:52:24.969Z,3.40
2023-02-27T09:54:51.798Z,3.67
2023-02-27T09:57:29.615Z,3.40
2023-02-27T10:00:15.648Z,3.50
2023-02-27T10:02:56.337Z,3.20
2023-02-27T10:05:26.873Z,3.47
2023-02-27T10:08:19.589Z,3.50
2023-02-27T10:11:00.312Z,3.10
2023-02-27T10:13:59.352Z,3.63
2023-02-27T10:16:27.378Z,3.40
2023-02-27T10:19:03.446Z,3.87
2023-02-27T10:21:49.084Z,4.00
2023-02-27T10:24:15.517Z,4.37
2023-02-27T10:26:44.076Z,4.03
2023-02-27T10:29:36.703Z,3.73
2023-02-27T10:32:07.516Z,3.80
2023-02-27T10:34:34.644Z,3.60
2023-02-27T10:37:03.241Z,3.97
2023-02-27T10:39:30.637Z,4.03
2023-02-27T10:42:03.504Z,4.10
2023-02-27T10:44:30.364Z,4.00
2023-02-27T10:46:56.780Z,3.73
2023-02-27T10:49:23.586Z,3.73
2023-02-27T10:52:04.481Z,3.67
2023-02-27T10:54:31.429Z,3.60
2023-02-27T10:57:00.913Z,4.00
2023-02-27T10:59:32.006Z,3.83
2023-02-27T11:02:04.771Z,3.83
2023-02-27T11:04:46.905Z,4.07
2023-02-27T11:07:15.913Z,3.17
2023-02-27T11:09:42.453Z,3.20
2023-02-27T11:12:20.309Z,3.10
2023-02-27T11:14:52.797Z,3.63
2023-02-27T11:17:34.097Z,3.00
2023-02-27T11:20:02.533Z,3.20
2023-02-27T11:22:30.500Z,2.80
2023-02-27T11:25:23.726Z,3.10
2023-02-27T11:27:52.116Z,2.90
2023-02-27T11:30:31.549Z,3.07
2023-02-27T11:33:01.097Z,3.20
2023-02-27T11:35:36.587Z,3.00
2023-02-27T11:38:05.809Z,2.43
2023-02-27T11:40:48.060Z,2.33
2023-02-27T11:43:21.247Z,2.53
2023-02-27T11:46:13.570Z,2.83
2023-02-27T11:48:46.722Z,2.67
2023-02-27T11:51:25.521Z,2.63
2023-02-27T11:54:06.310Z,2.97
2023-02-27T11:56:54.489Z,2.80
2023-02-27T11:59:24.546Z,3.60
2023-02-27T12:02:09.931Z,2.60
2023-02-27T12:05:16.801Z,2.70
2023-02-27T12:07:47.261Z,3.50
2023-02-27T12:10:28.861Z,2.67
2023-02-27T12:13:03.285Z,3.00
2023-02-27T12:15:37.638Z,3.10
2023-02-27T12:18:10.046Z,3.20
2023-02-27T12:21:18.054Z,3.17
2023-02-27T12:24:09.017Z,3.60
2023-02-27T12:26:42.429Z,3.07
2023-02-27T12:29:18.463Z,3.60
2023-02-27T12:31:49.853Z,3.80
2023-02-27T12:34:31.549Z,3.40
2023-02-27T12:37:28.138Z,6.20
2023-02-27T12:39:56.462Z,4.30
2023-02-27T12:42:35.377Z,3.97
2023-02-27T12:45:18.229Z,3.57
2023-02-27T12:47:56.900Z,5.70
2023-02-27T12:50:24.974Z,3.70
2023-02-27T12:53:14.743Z,3.27
2023-02-27T12:55:45.563Z,9.00
2023-02-27T12:58:28.637Z,3.47
2023-02-27T13:01:06.351Z,3.90
2023-02-27T13:03:56.126Z,2.77
2023-02-27T13:06:44.059Z,2.90
2023-02-27T13:09:13.473Z,2.60
2023-02-27T13:11:51.760Z,2.63
2023-02-27T13:14:39.437Z,2.40
2023-02-27T13:17:10.924Z,2.23
2023-02-27T13:19:59.885Z,2.40
2023-02-27T13:22:26.355Z,2.40
2023-02-27T13:24:56.276Z,2.40
2023-02-27T13:27:25.021Z,2.60
2023-02-27T13:30:11.721Z,2.77
2023-02-27T13:32:51.552Z,2.73
2023-02-27T13:35:29.436Z,2.70
2023-02-27T13:38:05.311Z,2.90
2023-02-27T13:40:40.758Z,2.83
2023-02-27T13:43:46.489Z,2.10
2023-02-27T13:46:47.042Z,1.43
2023-02-27T13:49:28.888Z,1.50
2023-02-27T13:51:59.529Z,1.53
2023-02-27T13:54:40.429Z,1.17
2023-02-27T13:57:17.479Z,1.27
2023-02-27T13:59:52.309Z,1.40
2023-02-27T14:02:33.241Z,1.27
2023-02-27T14:05:03.224Z,1.10
2023-02-27T14:07:33.455Z,1.20
2023-02-27T14:10:11.466Z,1.30
2023-02-27T14:12:46.452Z,1.00
2023-02-27T14:15:22.380Z,1.03
2023-02-27T14:18:05.774Z,1.43
2023-02-27T14:20:40.950Z,1.00
2023-02-27T14:23:26.400Z,1.37
2023-02-27T14:26:17.161Z,1.20
2023-02-27T14:28:56.389Z,1.07
2023-02-27T14:31:34.912Z,1.10
2023-02-27T14:34:06.260Z,1.27
2023-02-27T14:36:36.217Z,1.10
2023-02-27T14:39:04.195Z,1.10
2023-02-27T14:41:44.994Z,1.20
2023-02-27T14:44:23.261Z,1.50
2023-02-27T14:46:51.401Z,1.40
2023-02-27T14:49:21.939Z,1.50
2023-02-27T14:51:48.885Z,1.40
2023-02-27T14:54:17.636Z,1.40
2023-02-27T14:56:58.730Z,1.40
2023-02-27T14:59:26.676Z,1.30
2023-02-27T15:01:55.808Z,1.70
2023-02-27T15:04:24.021Z,1.43
2023-02-27T15:06:51.648Z,1.50
2023-02-27T15:09:23.039Z,1.50
2023-02-27T15:12:03.189Z,1.50
2023-02-27T15:14:36.622Z,1.50
2023-02-27T15:17:04.186Z,1.80
2023-02-27T15:19:31.130Z,2.00
2023-02-27T15:22:00.166Z,1.80
2023-02-27T15:24:49.278Z,1.70
2023-02-27T15:27:22.413Z,1.60
2023-02-27T15:29:57.606Z,2.17
2023-02-27T15:32:38.193Z,1.70
2023-02-27T15:35:12.589Z,1.83
2023-02-27T15:37:40.995Z,1.53
2023-02-27T15:40:13.154Z,1.83
2023-02-27T15:42:39.644Z,2.10
2023-02-27T15:45:07.240Z,2.20
2023-02-27T15:47:34.386Z,2.00
2023-02-27T15:50:12.596Z,2.20
2023-02-27T15:52:46.591Z,2.07
2023-02-27T15:55:15.252Z,2.33
2023-02-27T15:57:56.503Z,2.33
2023-02-27T16:00:30.354Z,2.60
2023-02-27T16:02:58.340Z,2.77
2023-02-27T16:05:29.597Z,2.67
2023-02-27T16:07:56.222Z,2.43
2023-02-27T16:10:30.786Z,3.13
2023-02-27T16:12:57.320Z,3.42
2023-02-27T16:15:28.973Z,4.05
2023-02-27T16:18:06.786Z,3.60
2023-02-27T16:20:41.342Z,4.97
2023-02-27T16:23:22.592Z,4.63
2023-02-27T16:26:17.263Z,4.25
2023-02-27T16:28:57.262Z,4.03
2023-02-27T16:31:24.511Z,4.13
2023-02-27T16:33:51.570Z,3.87
2023-02-27T16:36:24.054Z,3.90
2023-02-27T16:38:51.010Z,3.70
2023-02-27T16:41:19.352Z,3.90
2023-02-27T16:43:47.499Z,3.72
2023-02-27T16:46:19.979Z,4.20
2023-02-27T16:48:49.897Z,4.40
2023-02-27T16:51:23.788Z,4.53
2023-02-27T16:53:52.137Z,4.03
2023-02-27T16:56:23.710Z,4.67
2023-02-27T16:58:55.838Z,4.97
2023-02-27T17:01:22.387Z,8.60
2023-02-27T17:03:49.066Z,9.50
2023-02-27T17:06:15.778Z,7.67
2023-02-27T17:08:44.026Z,4.70
2023-02-27T17:11:10.579Z,4.10
2023-02-27T17:13:37.390Z,4.50
2023-02-27T17:16:04.650Z,4.50
2023-02-27T17:18:31.116Z,4.60
2023-02-27T17:21:02.261Z,5.87
2023-02-27T17:23:28.684Z,6.60
2023-02-27T17:25:55.787Z,7.20
2023-02-27T17:28:23.270Z,8.77
2023-02-27T17:30:50.306Z,10.47
2023-02-27T17:33:17.415Z,10.33
2023-02-27T17:35:44.036Z,9.43
2023-02-27T17:38:10.596Z,9.07
2023-02-27T17:40:39.206Z,8.17
2023-02-27T17:43:06.207Z,8.90
2023-02-27T17:45:32.818Z,7.93
2023-02-27T17:47:59.500Z,8.03
2023-02-27T17:50:26.114Z,7.77
2023-02-27T17:52:52.610Z,7.77
2023-02-27T17:55:19.344Z,8.30
2023-02-27T17:57:46.134Z,9.10
2023-02-27T18:00:17.100Z,9.13
2023-02-27T18:02:45.003Z,9.10
2023-02-27T18:05:11.559Z,10.13
2023-02-27T18:07:38.134Z,9.57
2023-02-27T18:10:06.058Z,8.50
2023-02-27T18:12:32.734Z,7.97
2023-02-27T18:14:59.249Z,7.80
2023-02-27T18:17:25.915Z,7.23
2023-02-27T18:19:52.463Z,7.40
2023-02-27T18:22:21.826Z,8.20
2023-02-27T18:24:49.381Z,7.90
2023-02-27T18:27:16.077Z,8.27
2023-02-27T18:29:43.718Z,8.50
2023-02-27T18:32:10.453Z,7.70
2023-02-27T18:34:39.609Z,7.90
2023-02-27T18:37:06.529Z,7.30
2023-02-27T18:39:33.015Z,6.27
2023-02-27T18:42:00.023Z,5.90
2023-02-27T18:44:26.749Z,6.63
2023-02-27T18:46:53.329Z,5.97
2023-02-27T18:49:20.091Z,5.90
2023-02-27T18:51:47.064Z,5.70
2023-02-27T18:54:14.481Z,5.50
2023-02-27T18:56:41.306Z,5.33
2023-02-27T18:59:07.945Z,5.87
2023-02-27T19:01:37.145Z,5.80
2023-02-27T19:04:05.580Z,6.30
2023-02-27T19:06:34.045Z,5.80
2023-02-27T19:09:00.841Z,6.37
2023-02-27T19:11:33.390Z,6.27
2023-02-27T19:14:01.801Z,5.70
2023-02-27T19:16:29.003Z,6.17
2023-02-27T19:18:57.121Z,6.53
2023-02-27T19:21:24.730Z,6.50
2023-02-27T19:23:51.347Z,7.03
2023-02-27T19:26:17.805Z,6.70
2023-02-27T19:28:44.634Z,6.30
2023-02-27T19:31:13.996Z,6.23
2023-02-27T19:33:41.139Z,6.63
2023-02-27T19:36:11.155Z,6.17
2023-02-27T19:38:37.938Z,6.43
2023-02-27T19:41:06.939Z,6.90
2023-02-27T19:43:38.028Z,11.67
2023-02-27T19:46:06.710Z,11.37
2023-02-27T19:48:33.562Z,12.37
2023-02-27T19:51:04.310Z,10.43
2023-02-27T19:53:31.297Z,10.60
2023-02-27T19:56:02.525Z,9.67
2023-02-27T19:58:29.861Z,10.70
2023-02-27T20:00:56.447Z,11.87
2023-02-27T20:03:23.797Z,11.90
2023-02-27T20:05:51.151Z,9.03
2023-02-27T20:08:18.324Z,8.13
2023-02-27T20:10:54.851Z,8.90
2023-02-27T20:13:21.479Z,9.33
2023-02-27T20:15:58.280Z,8.87
2023-02-27T20:18:27.386Z,7.77
2023-02-27T20:21:11.003Z,8.07
2023-02-27T20:23:39.101Z,7.90
2023-02-27T20:26:26.502Z,7.50
2023-02-27T20:28:54.781Z,7.83
2023-02-27T20:31:24.408Z,7.20
2023-02-27T20:33:51.381Z,7.50
2023-02-27T20:36:17.976Z,7.70
2023-02-27T20:38:44.596Z,7.23
2023-02-27T20:41:16.835Z,7.07
2023-02-27T20:43:44.003Z,6.60
2023-02-27T20:46:21.752Z,6.80
2023-02-27T20:48:48.678Z,6.63
2023-02-27T20:51:16.555Z,7.20
2023-02-27T20:53:44.899Z,7.33
2023-02-27T20:56:11.677Z,7.23
2023-02-27T20:58:39.164Z,7.77
2023-02-27T21:01:10.422Z,7.90
2023-02-27T21:03:39.265Z,7.87
2023-02-27T21:06:07.430Z,7.00
2023-02-27T21:08:38.420Z,7.30
2023-02-27T21:11:15.461Z,7.90
2023-02-27T21:13:42.112Z,7.97
2023-02-27T21:16:10.583Z,7.80
2023-02-27T21:18:38.139Z,7.50
2023-02-27T21:21:16.277Z,8.33
2023-02-27T21:23:43.166Z,7.27
2023-02-27T21:26:16.917Z,8.50
2023-02-27T21:28:47.754Z,7.33
2023-02-27T21:31:15.652Z,7.77
2023-02-27T21:33:42.466Z,7.80
2023-02-27T21:36:09.861Z,7.20
2023-02-27T21:38:37.084Z,6.93
2023-02-27T21:41:11.984Z,7.37
2023-02-27T21:43:42.042Z,8.07
2023-02-27T21:46:11.327Z,7.87
2023-02-27T21:48:38.362Z,7.60
2023-02-27T21:51:05.971Z,7.53
2023-02-27T21:53:32.986Z,7.47
2023-02-27T21:56:07.761Z,8.10
2023-02-27T21:58:34.714Z,8.00
2023-02-27T22:01:01.574Z,8.37
2023-02-27T22:03:34.204Z,8.20
2023-02-27T22:06:02.117Z,8.77
2023-02-27T22:08:28.829Z,9.07
2023-02-27T22:10:59.631Z,10.17
2023-02-27T22:13:27.083Z,10.20
2023-02-27T22:15:54.187Z,11.20
2023-02-27T22:18:20.729Z,10.43
2023-02-27T22:20:47.308Z,9.50
2023-02-27T22:23:13.871Z,10.07
2023-02-27T22:25:41.150Z,9.97
2023-02-27T22:28:07.806Z,9.10
2023-02-27T22:30:34.411Z,9.20
2023-02-27T22:33:01.821Z,9.07
2023-02-27T22:35:28.426Z,8.40
2023-02-27T22:37:54.993Z,8.93
2023-02-27T22:40:21.599Z,8.73
2023-02-27T22:42:48.119Z,8.43
2023-02-27T22:45:15.128Z,8.60
2023-02-27T22:47:41.674Z,8.60
2023-02-27T22:50:08.979Z,8.67
2023-02-27T22:52:36.577Z,8.63
2023-02-27T22:55:03.572Z,9.03
2023-02-27T22:57:30.155Z,8.50
2023-02-27T22:59:56.589Z,8.50
2023-02-27T23:02:23.102Z,8.77
2023-02-27T23:04:49.687Z,9.07
2023-02-27T23:07:16.488Z,9.07
2023-02-27T23:09:43.827Z,9.57
2023-02-27T23:12:10.466Z,9.30
2023-02-27T23:14:36.947Z,9.13
2023-02-27T23:17:03.484Z,8.20
2023-02-27T23:19:30.168Z,6.97
2023-02-27T23:21:56.601Z,6.90
2023-02-27T23:24:23.162Z,6.57
2023-02-27T23:26:51.169Z,5.90
2023-02-27T23:29:18.442Z,6.60
2023-02-27T23:31:45.198Z,6.23
2023-02-27T23:34:12.010Z,6.13
2023-02-27T23:36:38.977Z,6.43
2023-02-27T23:39:06.675Z,6.53
2023-02-27T23:41:33.435Z,6.30
2023-02-27T23:44:01.433Z,6.10
2023-02-27T23:46:30.459Z,6.17
2023-02-27T23:49:00.836Z,6.63
2023-02-27T23:51:30.247Z,6.43
2023-02-27T23:53:57.738Z,6.90
2023-02-27T23:56:26.455Z,7.43
2023-02-27T23:58:58.740Z,6.60
